Time;durP1;ratioP1;P1;durP2;ratioP2;P2;SDS_P1;SDS_P2;PMS_P1;PMS_P2;Temp;Humidity;BMP_temperature;BMP_pressure;BME280_temperature;BME280_humidity;BME280_pressure;Samples;Min_cycle;Max_cycle;Signal;HPM_P1;HPM_P2
2022/08/17 00:02:20;;;;;;;15.60;6.00;;;;;;;26.88;54.77;100761.53;4922286;28;21078;-83
2022/08/17 00:04:53;;;;;;;12.68;5.47;;;;;;;26.99;54.76;100768.84;4922626;28;20549;-83
2022/08/17 00:07:20;;;;;;;10.02;5.72;;;;;;;27.02;54.70;100760.19;4920014;29;20078;-83
2022/08/17 00:09:47;;;;;;;14.25;6.07;;;;;;;27.01;54.76;100753.06;4935728;28;20047;-84
2022/08/17 00:12:14;;;;;;;11.90;6.43;;;;;;;27.07;55.11;100771.19;4922020;28;20066;-83
2022/08/17 00:15:01;;;;;;;14.63;6.32;;;;;;;26.87;55.94;100770.78;4933200;28;20053;-84
2022/08/17 00:17:27;;;;;;;11.70;6.25;;;;;;;26.71;55.57;100757.91;4920634;28;20141;-83
2022/08/17 00:19:54;;;;;;;9.38;5.90;;;;;;;25.89;55.96;100626.25;4920874;28;20141;-83
2022/08/17 00:22:21;;;;;;;11.15;6.10;;;;;;;26.29;55.53;100679.09;4935995;28;20078;-82
2022/08/17 00:25:02;;;;;;;14.38;5.68;;;;;;;26.76;55.97;100766.16;4921219;28;20055;-83
2022/08/17 00:27:29;;;;;;;17.35;6.32;;;;;;;26.63;56.25;100764.53;4934623;28;20195;-84
2022/08/17 00:29:56;;;;;;;10.15;5.38;;;;;;;26.60;56.16;100763.13;4935151;28;20496;-83
2022/08/17 00:32:22;;;;;;;8.60;5.40;;;;;;;26.59;56.41;100777.78;4934944;28;20051;-84
2022/08/17 00:35:11;;;;;;;10.25;5.70;;;;;;;26.58;56.66;100783.47;4920729;28;20489;-83
2022/08/17 00:37:38;;;;;;;11.18;6.25;;;;;;;26.14;56.74;100710.34;4921024;28;20163;-83
2022/08/17 00:40:07;;;;;;;9.18;5.43;;;;;;;26.28;56.89;100748.19;4935447;28;20131;-82
2022/08/17 00:42:34;;;;;;;7.43;5.35;;;;;;;26.41;56.94;100776.00;4920743;28;20059;-83
2022/08/17 00:45:03;;;;;;;10.13;6.00;;;;;;;26.38;57.21;100775.63;4935231;28;20407;-81
2022/08/17 00:47:30;;;;;;;15.00;6.05;;;;;;;26.30;57.39;100767.84;4918643;28;20531;-82
2022/08/17 00:49:56;;;;;;;14.75;5.97;;;;;;;26.36;57.54;100773.16;4935202;28;20764;-82
2022/08/17 00:52:31;;;;;;;12.00;6.80;;;;;;;26.30;57.18;100765.13;4925920;28;20172;-83
2022/08/17 00:54:58;;;;;;;8.32;5.32;;;;;;;26.29;57.26;100777.03;4939919;28;20161;-83
2022/08/17 00:57:30;;;;;;;9.05;5.57;;;;;;;25.95;57.62;100722.41;4938233;28;20711;-83
2022/08/17 01:00:01;;;;;;;8.40;5.45;;;;;;;25.92;57.57;100709.25;4921901;28;20514;-82
2022/08/17 01:02:33;;;;;;;7.55;5.90;;;;;;;26.31;57.66;100786.66;4922172;28;20462;-82
2022/08/17 01:05:22;;;;;;;13.23;6.03;;;;;;;26.31;57.78;100791.25;4939409;28;20384;-83
2022/08/17 01:07:51;;;;;;;18.67;6.38;;;;;;;26.07;57.59;100747.72;4938491;28;20059;-84
2022/08/17 01:10:22;;;;;;;12.20;6.05;;;;;;;26.16;57.75;100751.72;4938142;28;20161;-83
2022/08/17 01:13:11;;;;;;;9.73;6.03;;;;;;;26.25;57.89;100771.25;4924956;28;20057;-83
2022/08/17 01:15:41;;;;;;;9.73;6.05;;;;;;;26.21;58.05;100770.06;4939331;28;20705;-82
2022/08/17 01:18:12;;;;;;;11.82;5.55;;;;;;;26.25;58.47;100787.59;4940432;28;20050;-82
2022/08/17 01:20:50;;;;;;;15.10;6.60;;;;;;;25.83;58.44;100706.06;4923374;28;20184;-83
2022/08/17 01:23:20;;;;;;;10.63;6.70;;;;;;;26.30;58.51;100789.59;4923729;28;20995;-83
2022/08/17 01:25:51;;;;;;;11.90;7.13;;;;;;;26.32;58.61;100787.47;4939778;28;20051;-82
2022/08/17 01:28:18;;;;;;;13.15;6.47;;;;;;;26.36;58.77;100789.50;4939327;28;20581;-83
2022/08/17 01:31:07;;;;;;;11.18;6.47;;;;;;;26.32;58.84;100782.03;4942260;28;20061;-83
2022/08/17 01:33:34;;;;;;;13.23;6.80;;;;;;;26.19;59.30;100770.31;4940818;28;20207;-84
2022/08/17 01:36:03;;;;;;;13.10;5.70;;;;;;;26.21;59.27;100783.69;4939711;28;20138;-82
2022/08/17 01:38:30;;;;;;;10.75;7.35;;;;;;;26.19;59.40;100781.22;4922614;28;20257;-83
2022/08/17 01:41:05;;;;;;;17.35;6.80;;;;;;;26.18;59.93;100784.16;4937257;28;20531;-82
2022/08/17 01:43:42;;;;;;;10.32;6.72;;;;;;;25.98;59.64;100760.00;4939061;28;20519;-81
2022/08/17 01:46:19;;;;;;;8.65;6.63;;;;;;;26.11;60.01;100792.41;4922673;28;20665;-83
2022/08/17 01:48:47;;;;;;;11.95;6.90;;;;;;;26.05;60.07;100778.94;4925587;28;20191;-83
2022/08/17 01:51:14;;;;;;;10.35;7.13;;;;;;;26.13;60.24;100789.47;4943177;28;20133;-82
2022/08/17 01:53:46;;;;;;;14.15;7.28;;;;;;;25.45;60.33;100680.09;4921847;28;20624;-82
2022/08/17 01:56:17;;;;;;;12.02;6.25;;;;;;;26.14;60.42;100789.25;4938349;28;20066;-81
2022/08/17 01:58:43;;;;;;;11.50;7.03;;;;;;;26.08;60.42;100782.00;4938511;28;20563;-83
2022/08/17 02:01:13;;;;;;;11.98;6.43;;;;;;;26.10;60.75;100800.84;4923128;28;20308;-82
2022/08/17 02:03:40;;;;;;;9.52;6.72;;;;;;;25.78;60.66;100758.41;4923885;28;20059;-81
2022/08/17 02:06:25;;;;;;;14.15;6.88;;;;;;;25.98;60.77;100807.06;4935999;28;20059;-82
2022/08/17 02:08:54;;;;;;;11.95;6.93;;;;;;;25.99;60.37;100799.72;4937516;28;20536;-83
2022/08/17 02:11:31;;;;;;;10.85;6.72;;;;;;;25.66;60.67;100745.88;4936678;28;20098;-82
2022/08/17 02:13:58;;;;;;;14.23;7.10;;;;;;;25.52;60.53;100718.03;4923372;28;20141;-82
2022/08/17 02:16:30;;;;;;;11.57;7.03;;;;;;;26.05;60.42;100804.25;4937565;28;20237;-82
2022/08/17 02:19:05;;;;;;;13.38;7.03;;;;;;;26.29;60.18;100806.97;4936847;28;20059;-81
2022/08/17 02:21:33;;;;;;;15.13;7.68;;;;;;;26.11;59.68;100806.03;4920843;29;20051;-83
2022/08/17 02:23:59;;;;;;;9.55;6.90;;;;;;;26.04;60.08;100813.47;4936965;28;20079;-82
2022/08/17 02:26:26;;;;;;;11.20;6.28;;;;;;;25.48;60.23;100722.28;4923005;28;20243;-81
2022/08/17 02:28:53;;;;;;;10.13;7.10;;;;;;;25.57;60.40;100759.75;4924030;28;20674;-82
2022/08/17 02:31:20;;;;;;;8.80;6.93;;;;;;;25.72;60.59;100786.50;4921011;29;20062;-82
2022/08/17 02:33:46;;;;;;;15.70;7.35;;;;;;;25.90;60.83;100822.88;4923106;29;20171;-81
2022/08/17 02:36:29;;;;;;;12.15;7.00;;;;;;;25.59;60.97;100789.44;4936005;28;20404;-82
2022/08/17 02:38:57;;;;;;;16.38;7.95;;;;;;;25.60;61.12;100823.72;4937195;28;20596;-82
2022/08/17 02:41:24;;;;;;;11.40;7.55;;;;;;;25.61;61.62;100830.81;4937713;28;20502;-82
2022/08/17 02:43:51;;;;;;;11.88;7.68;;;;;;;25.21;61.82;100774.28;4937210;28;20471;-82
2022/08/17 02:46:18;;;;;;;9.95;7.72;;;;;;;25.54;62.19;100825.47;4936621;28;20201;-82
2022/08/17 02:48:45;;;;;;;13.63;8.68;;;;;;;25.22;62.17;100773.25;4937191;28;20641;-82
2022/08/17 02:51:11;;;;;;;11.60;7.88;;;;;;;25.57;62.33;100821.47;4936578;28;20142;-82
2022/08/17 02:53:38;;;;;;;13.70;7.22;;;;;;;25.46;62.20;100805.94;4939222;28;20087;-81
2022/08/17 02:56:05;;;;;;;14.63;7.60;;;;;;;25.57;62.47;100824.19;4941739;28;20721;-82
2022/08/17 02:58:32;;;;;;;16.17;7.60;;;;;;;25.40;62.77;100796.81;4922916;28;20142;-83
2022/08/17 03:01:04;;;;;;;18.77;8.57;;;;;;;25.45;63.01;100820.59;4936821;28;20461;-82
2022/08/17 03:03:31;;;;;;;24.02;8.73;;;;;;;25.45;63.18;100826.03;4935846;28;20055;-82
2022/08/17 03:05:58;;;;;;;14.30;8.52;;;;;;;24.89;63.38;100741.84;4935735;28;20054;-81
2022/08/17 03:08:26;;;;;;;15.85;9.02;;;;;;;25.28;63.71;100807.63;4936199;28;20207;-81
2022/08/17 03:10:52;;;;;;;19.80;9.18;;;;;;;25.34;63.96;100817.59;4919885;29;20153;-82
2022/08/17 03:13:19;;;;;;;18.67;8.30;;;;;;;25.31;64.09;100812.59;4921184;28;20103;-83
2022/08/17 03:15:47;;;;;;;14.10;8.93;;;;;;;25.22;63.95;100799.56;4921150;28;20063;-82
2022/08/17 03:18:20;;;;;;;15.57;9.07;;;;;;;25.13;64.15;100796.31;4935638;28;20531;-80
2022/08/17 03:20:58;;;;;;;15.15;8.07;;;;;;;25.27;64.18;100822.28;4935546;28;20553;-82
2022/08/17 03:23:26;;;;;;;13.77;8.13;;;;;;;25.28;64.01;100821.22;4935615;28;21170;-82
2022/08/17 03:25:53;;;;;;;15.18;8.60;;;;;;;25.17;63.87;100811.09;4920019;29;20482;-82
2022/08/17 03:28:20;;;;;;;16.00;7.78;;;;;;;25.24;63.98;100825.44;4935508;28;20079;-82
2022/08/17 03:30:47;;;;;;;13.82;8.38;;;;;;;25.21;63.75;100816.91;4919691;29;20448;-83
2022/08/17 03:33:15;;;;;;;13.35;7.18;;;;;;;24.88;63.28;100764.63;4920624;29;20617;-82
2022/08/17 03:35:41;;;;;;;12.30;8.15;;;;;;;25.13;63.35;100799.03;4919758;29;20710;-82
2022/08/17 03:38:10;;;;;;;20.42;7.65;;;;;;;25.03;63.81;100787.88;4920718;29;20126;-81
2022/08/17 03:40:38;;;;;;;14.65;7.28;;;;;;;24.76;63.56;100742.03;4935257;28;20055;-81
2022/08/17 03:43:31;;;;;;;10.52;6.75;;;;;;;24.65;62.84;100718.34;4933961;28;20047;-82
2022/08/17 03:57:30;;;;;;;11.93;6.97;;;;;;;24.68;62.13;100767.56;4903452;28;20174;-82
2022/08/17 03:59:56;;;;;;;12.88;7.32;;;;;;;24.87;61.99;100800.97;4939934;28;20050;-82
2022/08/17 04:02:27;;;;;;;11.98;7.28;;;;;;;24.82;61.88;100795.41;4884052;28;1130568;-82
2022/08/17 04:04:55;;;;;;;15.10;6.95;;;;;;;24.82;61.77;100800.81;4923720;28;20145;-81
2022/08/17 04:07:23;;;;;;;17.85;6.88;;;;;;;24.75;60.11;100778.34;4938936;28;20598;-82
2022/08/17 04:09:50;;;;;;;8.75;5.35;;;;;;;25.14;57.03;100803.38;4923138;28;20137;-82
2022/08/17 04:12:19;;;;;;;17.45;7.03;;;;;;;25.10;57.04;100796.78;4929117;28;20078;-82
2022/08/17 04:14:46;;;;;;;14.00;7.30;;;;;;;25.09;57.81;100789.66;4944366;28;20489;-83
2022/08/17 04:17:26;;;;;;;14.95;7.60;;;;;;;25.24;58.92;100795.53;4941604;28;20059;-83
2022/08/17 04:19:53;;;;;;;13.90;8.30;;;;;;;24.40;60.51;100686.66;4924374;28;20058;-81
2022/08/17 04:22:22;;;;;;;21.52;8.32;;;;;;;24.85;61.55;100773.22;4922924;28;20269;-83
2022/08/17 04:25:17;;;;;;;22.20;8.38;;;;;;;24.81;62.08;100807.31;4924415;28;20512;-81
2022/08/17 04:27:43;;;;;;;17.63;8.77;;;;;;;24.70;61.84;100800.75;4923144;28;20249;-82
2022/08/17 04:30:10;;;;;;;19.92;8.27;;;;;;;24.86;61.83;100829.19;4922954;28;20141;-82
2022/08/17 04:33:08;;;;;;;17.75;7.13;;;;;;;24.85;60.81;100843.00;4939318;28;20489;-80
2022/08/17 04:35:38;;;;;;;20.73;8.23;;;;;;;24.80;60.68;100840.94;4939527;28;20090;-82
2022/08/17 04:38:07;;;;;;;13.65;7.15;;;;;;;24.68;60.45;100832.72;4940525;28;20086;-82
2022/08/17 04:43:23;;;;;;;17.63;7.68;;;;;;;24.31;59.85;100774.81;4939252;28;20113;-83
2022/08/17 04:45:56;;;;;;;17.27;6.85;;;;;;;24.67;59.14;100835.66;4923108;28;20062;-82
2022/08/17 04:48:25;;;;;;;13.45;7.38;;;;;;;24.89;58.59;100855.91;4940236;28;20587;-83
2022/08/17 04:51:01;;;;;;;14.18;7.05;;;;;;;24.85;57.95;100838.38;4923543;28;20177;-82
2022/08/17 04:53:28;;;;;;;14.07;7.60;;;;;;;24.93;57.41;100829.13;4934813;28;20086;-82
2022/08/17 04:55:57;;;;;;;12.75;7.32;;;;;;;23.86;58.21;100683.66;4922601;29;20177;-82
2022/08/17 04:58:24;;;;;;;16.60;7.80;;;;;;;24.70;58.12;100824.34;4926169;28;20058;-82
2022/08/17 05:00:50;;;;;;;10.05;7.47;;;;;;;24.37;58.03;100789.34;4919785;29;20509;-81
2022/08/17 05:03:17;;;;;;;15.73;7.80;;;;;;;24.64;58.58;100826.09;4919862;28;20063;-83
2022/08/17 05:05:48;;;;;;;12.00;6.85;;;;;;;24.41;58.57;100783.25;4904018;29;20066;-82
2022/08/17 05:08:18;;;;;;;10.63;7.07;;;;;;;24.85;58.52;100867.44;4924388;29;20129;-82
2022/08/17 05:10:46;;;;;;;17.45;7.68;;;;;;;24.64;58.56;100857.84;4920865;29;20256;-82
2022/08/17 05:13:24;;;;;;;17.65;7.78;;;;;;;24.72;58.92;100873.81;4920483;28;20914;-83
2022/08/17 05:15:54;;;;;;;20.02;7.90;;;;;;;24.65;58.57;100865.72;4903347;29;20067;-81
2022/08/17 05:18:21;;;;;;;14.15;7.28;;;;;;;24.41;58.90;100831.28;4920058;29;20138;-81
2022/08/17 05:20:50;;;;;;;15.90;8.02;;;;;;;24.76;58.68;100902.19;4917788;28;20182;-81
2022/08/17 05:23:20;;;;;;;12.95;7.05;;;;;;;24.80;58.24;100895.25;4917918;29;20692;-82
2022/08/17 05:25:49;;;;;;;13.98;6.82;;;;;;;24.83;58.56;100894.81;4918093;28;20059;-81
2022/08/17 05:28:19;;;;;;;10.23;7.05;;;;;;;24.76;58.17;100877.75;4902623;29;20070;-82
2022/08/17 05:30:55;;;;;;;15.30;6.88;;;;;;;24.62;57.42;100859.94;4910607;29;20248;-82
2022/08/17 05:33:27;;;;;;;10.52;6.90;;;;;;;25.01;57.32;100912.19;4914969;28;20947;-82
2022/08/17 05:35:57;;;;;;;15.38;6.85;;;;;;;25.10;55.60;100905.41;4917231;28;20061;-81
2022/08/17 05:38:26;;;;;;;14.60;6.35;;;;;;;25.18;54.77;100909.75;4916817;29;20055;-83
2022/08/17 05:40:53;;;;;;;12.50;6.35;;;;;;;25.05;54.37;100880.78;4919353;29;20169;-81
2022/08/17 05:43:29;;;;;;;16.77;6.22;;;;;;;25.33;52.46;100899.31;4901946;29;20634;-81
2022/08/17 05:46:05;;;;;;;15.38;6.05;;;;;;;25.36;51.74;100904.28;4903171;29;20320;-82
2022/08/17 05:48:43;;;;;;;24.10;6.70;;;;;;;25.41;50.87;100906.34;4919179;29;20356;-81
2022/08/17 05:51:28;;;;;;;11.70;6.13;;;;;;;25.46;50.99;100909.19;4903363;29;20213;-81
2022/08/17 05:54:04;;;;;;;13.18;5.55;;;;;;;25.45;51.13;100913.00;4930362;28;20179;-82
2022/08/17 05:56:54;;;;;;;11.30;6.15;;;;;;;25.53;51.15;100915.38;4925850;28;20058;-82
2022/08/17 06:00:06;;;;;;;8.18;5.30;;;;;;;25.67;50.25;100922.31;4897078;29;20146;-82
2022/08/17 06:03:01;;;;;;;17.55;5.60;;;;;;;25.70;50.29;100908.25;4900986;29;20282;-82
2022/08/17 06:05:49;;;;;;;13.52;7.03;;;;;;;25.83;49.67;100904.56;4921872;29;20051;-82
2022/08/17 06:08:37;;;;;;;11.77;5.78;;;;;;;25.80;49.73;100911.28;4903022;29;20631;-82
2022/08/17 06:11:32;;;;;;;11.30;6.32;;;;;;;25.94;48.93;100922.81;4902575;29;21117;-81
2022/08/17 06:14:20;;;;;;;9.98;5.97;;;;;;;26.03;48.80;100928.78;4915360;29;20122;-81
2022/08/17 06:16:55;;;;;;;13.55;6.07;;;;;;;26.03;48.91;100928.78;4923070;29;20155;-82
2022/08/17 06:19:30;;;;;;;20.80;6.10;;;;;;;25.79;48.49;100876.16;4924276;29;20711;-81
2022/08/17 06:21:59;;;;;;;23.48;6.85;;;;;;;25.66;48.07;100844.56;4922798;29;20441;-80
2022/08/17 06:24:48;;;;;;;14.02;6.32;;;;;;;26.20;47.92;100926.25;4905568;29;20159;-81
2022/08/17 06:27:20;;;;;;;14.32;6.70;;;;;;;26.21;48.27;100941.50;4904498;29;20086;-82
2022/08/17 06:29:59;;;;;;;15.63;6.30;;;;;;;26.03;48.41;100904.31;4902487;29;20082;-81
2022/08/17 06:32:25;;;;;;;17.83;6.45;;;;;;;26.13;48.87;100903.75;4922182;28;20477;-79
2022/08/17 06:34:52;;;;;;;13.80;7.05;;;;;;;26.13;49.02;100904.56;4909170;29;20662;-81
2022/08/17 06:37:52;;;;;;;12.38;6.82;;;;;;;26.35;48.33;100929.34;4923347;29;20162;-82
2022/08/17 06:40:49;;;;;;;12.48;6.38;;;;;;;26.49;47.87;100934.59;4917405;29;20173;-82
2022/08/17 06:43:31;;;;;;;10.80;6.38;;;;;;;26.10;48.58;100872.38;4903083;29;20143;-82
2022/08/17 06:46:01;;;;;;;17.23;6.85;;;;;;;26.13;48.75;100871.09;4904038;29;20059;-81
2022/08/17 06:48:52;;;;;;;12.60;6.43;;;;;;;26.06;48.83;100863.03;4919776;28;21036;-81
2022/08/17 06:51:26;;;;;;;12.50;6.80;;;;;;;26.54;48.96;100927.41;4877764;29;20946;-82
2022/08/17 06:54:05;;;;;;;12.45;6.70;;;;;;;26.62;49.04;100921.59;4925188;29;20170;-82
2022/08/17 06:56:40;;;;;;;13.82;6.40;;;;;;;26.61;48.71;100906.34;4925113;29;20067;-83
2022/08/17 06:59:32;;;;;;;14.02;6.90;;;;;;;26.66;48.68;100905.66;4928129;29;20058;-83
2022/08/17 07:02:30;;;;;;;17.27;7.72;;;;;;;26.60;48.23;100899.25;4921120;29;20063;-82
2022/08/17 07:05:19;;;;;;;14.68;7.07;;;;;;;26.71;47.01;100883.97;4907815;29;20480;-82
2022/08/17 07:08:19;;;;;;;10.02;6.35;;;;;;;26.77;47.63;100902.06;4902356;29;20116;-82
2022/08/17 07:10:51;;;;;;;17.73;7.63;;;;;;;27.20;47.10;100916.44;4882218;29;20405;-77
2022/08/17 07:13:43;;;;;;;16.70;7.28;;;;;;;27.22;46.23;100908.84;4921681;28;20166;-78
2022/08/17 07:16:45;;;;;;;14.85;7.28;;;;;;;27.28;45.95;100907.88;4920300;29;20438;-78
2022/08/17 07:19:21;;;;;;;14.00;6.68;;;;;;;26.90;46.02;100854.72;4903772;29;20067;-77
2022/08/17 07:22:25;;;;;;;25.13;7.70;;;;;;;27.18;46.43;100899.44;4905428;29;20670;-78
2022/08/17 07:24:57;;;;;;;14.73;6.82;;;;;;;27.11;47.03;100896.03;4901287;29;20123;-78
2022/08/17 07:27:26;;;;;;;11.77;6.50;;;;;;;27.21;46.04;100871.75;4900835;29;20064;-78
2022/08/17 07:30:04;;;;;;;15.75;6.65;;;;;;;27.41;44.96;100891.25;4900889;29;20403;-78
2022/08/17 07:32:44;;;;;;;9.93;6.60;;;;;;;27.38;44.35;100901.81;4916556;29;20067;-79
2022/08/17 07:35:16;;;;;;;10.50;6.80;;;;;;;27.05;45.38;100855.03;4902891;29;20135;-78
2022/08/17 07:38:05;;;;;;;49.38;11.77;;;;;;;27.52;49.20;100905.91;4902230;29;20111;-79
2022/08/17 07:41:00;;;;;;;27.75;9.50;;;;;;;27.67;50.32;100902.66;4901358;29;20470;-79
2022/08/17 07:43:51;;;;;;;13.50;6.88;;;;;;;27.80;49.00;100899.66;4915292;28;20470;-79
2022/08/17 07:49:08;;;;;;;12.70;7.73;;;;;;;27.93;46.66;100901.28;4902125;29;20130;-78
2022/08/17 07:51:42;;;;;;;23.35;8.52;;;;;;;28.06;47.70;100901.00;4916097;29;20470;-79
2022/08/17 07:54:15;;;;;;;14.13;8.48;;;;;;;27.94;48.39;100850.28;4932357;28;20410;-77
2022/08/17 07:56:44;;;;;;;20.05;8.43;;;;;;;27.98;47.88;100849.53;4935461;28;20070;-79
2022/08/17 07:59:16;;;;;;;17.83;6.97;;;;;;;28.39;47.92;100904.00;4934969;28;20075;-77
2022/08/17 08:02:24;;;;;;;12.93;6.90;;;;;;;28.50;45.25;100895.78;4934884;28;20207;-77
2022/08/17 08:05:11;;;;;;;20.80;8.40;;;;;;;27.89;46.25;100819.13;4919624;29;20567;-79
2022/08/17 08:08:17;;;;;;;9.25;6.93;;;;;;;28.50;48.23;100906.69;4924555;28;20117;-77
2022/08/17 08:10:58;;;;;;;18.52;7.15;;;;;;;28.42;45.42;100900.78;4938246;28;20650;-79
2022/08/17 08:13:28;;;;;;;14.18;6.97;;;;;;;28.18;46.95;100875.53;4925843;29;20421;-77
2022/08/17 08:16:28;;;;;;;13.37;6.97;;;;;;;28.38;44.72;100907.81;4939545;28;20055;-78
2022/08/17 08:18:58;;;;;;;18.67;7.13;;;;;;;27.87;44.58;100821.28;4939683;28;20736;-79
2022/08/17 08:21:48;;;;;;;13.95;7.00;;;;;;;28.23;45.37;100909.22;4935637;28;20173;-78
2022/08/17 08:24:30;;;;;;;16.25;7.05;;;;;;;28.28;44.93;100914.75;4919286;29;20517;-78
2022/08/17 08:27:06;;;;;;;14.10;7.10;;;;;;;28.12;48.96;100850.88;4935052;28;20048;-78
2022/08/17 08:29:55;;;;;;;15.38;6.82;;;;;;;28.34;45.47;100902.84;4934536;28;20054;-79
2022/08/17 08:32:46;;;;;;;17.17;7.30;;;;;;;28.38;44.26;100888.72;4934161;28;20443;-79
2022/08/17 08:35:25;;;;;;;19.50;7.22;;;;;;;28.29;45.46;100912.84;4935049;28;20133;-79
2022/08/17 08:38:00;;;;;;;13.77;6.78;;;;;;;28.53;44.03;100916.28;4920502;29;20062;-80
2022/08/17 08:40:42;;;;;;;7.80;6.10;;;;;;;28.46;44.26;100916.44;4934634;28;20674;-79
2022/08/17 08:43:28;;;;;;;25.05;7.03;;;;;;;28.39;45.15;100912.19;4934143;28;20101;-80
2022/08/17 08:46:02;;;;;;;21.40;6.93;;;;;;;28.55;44.01;100914.97;4935291;28;20812;-77
2022/08/17 08:48:58;;;;;;;16.35;7.35;;;;;;;28.54;45.00;100910.56;4934271;28;20589;-76
2022/08/17 08:51:50;;;;;;;22.40;7.43;;;;;;;28.69;43.62;100915.47;4932626;28;20066;-79
2022/08/17 08:54:33;;;;;;;13.77;6.55;;;;;;;28.70;43.36;100913.56;4916814;28;20584;-78
2022/08/17 08:57:20;;;;;;;18.35;7.03;;;;;;;28.53;43.91;100869.88;4899091;29;20134;-79
2022/08/17 09:00:05;;;;;;;14.48;6.57;;;;;;;28.84;45.41;100897.66;4913678;29;20055;-78
2022/08/17 09:02:51;;;;;;;21.70;6.68;;;;;;;28.90;43.62;100888.44;4926403;28;20055;-78
2022/08/17 09:05:46;;;;;;;13.73;6.40;;;;;;;29.01;44.52;100887.50;4923142;29;20558;-78
2022/08/17 09:08:32;;;;;;;24.05;7.65;;;;;;;29.08;43.84;100890.94;4919587;29;20380;-79
2022/08/17 09:11:23;;;;;;;16.20;7.07;;;;;;;28.99;46.21;100843.22;4934724;28;20051;-78
2022/08/17 09:14:15;;;;;;;20.75;7.78;;;;;;;29.31;45.19;100883.56;4924439;28;20062;-78
2022/08/17 09:17:01;;;;;;;15.25;6.55;;;;;;;29.37;44.00;100883.38;4935963;28;20166;-78
2022/08/17 09:19:31;;;;;;;10.52;6.72;;;;;;;29.54;44.00;100888.75;4934757;28;20479;-79
2022/08/17 09:22:06;;;;;;;21.65;6.47;;;;;;;29.46;46.67;100852.81;4933699;28;20142;-79
2022/08/17 09:24:40;;;;;;;15.70;7.40;;;;;;;29.57;43.48;100876.47;4918183;29;20526;-79
2022/08/17 09:27:12;;;;;;;29.73;7.80;;;;;;;29.68;45.72;100825.47;4919472;28;20136;-78
2022/08/17 09:29:46;;;;;;;33.05;8.20;;;;;;;29.82;46.33;100876.78;4935195;28;20208;-78
2022/08/17 09:32:16;;;;;;;40.53;9.13;;;;;;;29.46;46.58;100877.44;4921545;28;20051;-78
2022/08/17 09:34:51;;;;;;;12.95;6.68;;;;;;;29.37;44.07;100850.56;4923397;29;20058;-83
2022/08/17 09:37:29;;;;;;;15.23;6.57;;;;;;;29.63;43.64;100874.63;4921711;29;20047;-84
2022/08/17 09:40:16;;;;;;;18.05;6.65;;;;;;;29.95;42.91;100872.78;4905398;29;20145;-81
2022/08/17 09:43:25;;;;;;;15.40;6.25;;;;;;;29.90;42.41;100814.44;4921834;29;21035;-82
2022/08/17 09:46:00;;;;;;;12.55;6.18;;;;;;;30.41;42.21;100870.47;4906403;29;20375;-82
2022/08/17 09:48:58;;;;;;;16.10;7.25;;;;;;;30.60;41.50;100876.38;4922668;29;20141;-82
2022/08/17 09:51:34;;;;;;;15.13;6.88;;;;;;;30.69;41.23;100843.84;4902386;29;20607;-83
2022/08/17 09:54:03;;;;;;;16.00;6.57;;;;;;;30.89;41.73;100865.06;4935053;28;20427;-83
2022/08/17 09:57:27;;;;;;;16.98;6.75;;;;;;;31.13;40.67;100865.47;4921902;28;20058;-82
2022/08/17 10:00:14;;;;;;;15.93;7.28;;;;;;;31.37;40.59;100873.25;4921956;29;20055;-83
2022/08/17 10:02:53;;;;;;;11.85;6.78;;;;;;;31.58;39.95;100883.25;4917869;29;20063;-83
2022/08/17 10:05:47;;;;;;;16.23;6.38;;;;;;;31.69;40.05;100857.44;4902258;29;20367;-82
2022/08/17 10:08:56;;;;;;;13.23;6.40;;;;;;;32.02;39.59;100874.56;4919967;29;20529;-83
2022/08/17 10:14:22;;;;;;;14.65;7.70;;;;;;;31.96;38.51;100842.69;4908689;29;20315;-83
2022/08/17 10:17:32;;;;;;;;;;;;;;;32.42;38.32;100889.38;4905193;29;20056;-84
2022/08/17 10:20:26;;;;;;;17.88;6.47;;;;;;;32.35;38.36;100836.66;4916731;29;19926;-83
2022/08/17 10:26:12;;;;;;;9.68;5.85;;;;;;;33.06;37.32;100873.38;4903298;29;20143;-83
2022/08/17 10:28:54;;;;;;;8.52;5.85;;;;;;;33.30;37.24;100868.88;4916764;29;20154;-83
2022/08/17 10:31:38;;;;;;;12.25;6.40;;;;;;;33.04;37.00;100799.41;4916749;29;20184;-83
2022/08/17 10:34:33;;;;;;;14.18;6.18;;;;;;;33.62;36.63;100879.47;4916849;28;20413;-83
2022/08/17 10:37:28;;;;;;;22.45;7.10;;;;;;;33.80;36.58;100877.16;4915745;29;20051;-82
2022/08/17 10:40:14;;;;;;;24.55;7.47;;;;;;;33.84;36.23;100884.56;4917608;29;20147;-82
2022/08/17 10:42:44;;;;;;;16.45;7.05;;;;;;;33.96;35.85;100869.59;4917168;29;20347;-83
2022/08/17 10:45:13;;;;;;;10.30;5.85;;;;;;;34.16;36.22;100863.97;4916478;29;20147;-82
2022/08/17 10:48:02;;;;;;;15.65;5.88;;;;;;;34.32;34.65;100872.91;4916102;29;20707;-83
2022/08/17 10:50:58;;;;;;;15.65;6.75;;;;;;;34.38;34.38;100854.44;4916643;29;20229;-83
2022/08/17 10:53:31;;;;;;;18.80;6.53;;;;;;;34.71;34.07;100871.22;4926990;28;20063;-83
2022/08/17 10:56:10;;;;;;;16.02;6.25;;;;;;;34.78;33.81;100872.50;4935498;28;20099;-84
2022/08/17 10:58:52;;;;;;;14.57;6.03;;;;;;;34.80;33.33;100863.94;4935111;28;20154;-84
2022/08/17 11:01:31;;;;;;;19.15;6.60;;;;;;;34.92;33.47;100869.88;4935412;28;20759;-84
2022/08/17 11:04:22;;;;;;;17.42;5.57;;;;;;;34.94;33.35;100872.34;4939391;28;20620;-83
2022/08/17 11:07:00;;;;;;;16.60;6.88;;;;;;;34.77;33.29;100818.47;4929395;28;20057;-83
2022/08/17 11:09:58;;;;;;;16.48;6.07;;;;;;;35.08;33.13;100848.47;4942753;28;20047;-84
2022/08/17 11:12:28;;;;;;;18.70;5.72;;;;;;;35.13;32.33;100820.00;4938368;28;20552;-84
2022/08/17 11:14:58;;;;;;;18.38;6.20;;;;;;;35.55;31.97;100871.56;4939265;28;20411;-83
2022/08/17 11:17:44;;;;;;;19.85;5.65;;;;;;;35.57;31.12;100851.97;4941425;28;20054;-82
2022/08/17 11:20:23;;;;;;;26.05;6.38;;;;;;;35.34;30.81;100799.28;4923539;28;20054;-83
2022/08/17 11:23:02;;;;;;;16.25;5.35;;;;;;;35.79;31.18;100862.44;4939707;28;20145;-83
2022/08/17 11:25:31;;;;;;;10.25;5.53;;;;;;;35.92;31.18;100861.66;4937064;28;20687;-82
2022/08/17 11:28:12;;;;;;;10.77;5.20;;;;;;;35.67;30.68;100802.94;4919816;29;20610;-84
2022/08/17 11:30:49;;;;;;;12.45;5.45;;;;;;;36.16;30.77;100854.09;4903160;29;20637;-83
2022/08/17 11:33:28;;;;;;;14.23;6.63;;;;;;;35.98;30.14;100796.13;4898698;29;20528;-83
2022/08/17 11:36:35;;;;;;;14.70;5.25;;;;;;;35.64;30.75;100717.16;4921219;29;20497;-83
2022/08/17 11:39:29;;;;;;;17.08;6.28;;;;;;;36.40;30.63;100841.28;4914277;29;20190;-84
2022/08/17 11:42:05;;;;;;;16.92;6.00;;;;;;;36.65;29.67;100848.28;4919287;29;20165;-84
2022/08/17 11:44:41;;;;;;;11.98;6.03;;;;;;;36.65;29.02;100846.34;4918730;29;20461;-84
2022/08/17 11:53:36;;;;;;;15.93;6.20;;;;;;;36.83;28.33;100782.97;4930956;28;20081;-84
2022/08/17 11:56:03;;;;;;;13.38;6.13;;;;;;;37.27;29.01;100858.97;4939620;28;20062;-83
2022/08/17 11:58:30;;;;;;;16.65;6.28;;;;;;;37.36;29.32;100844.09;4938164;28;20185;-82
2022/08/17 12:00:59;;;;;;;10.95;5.95;;;;;;;37.56;27.52;100840.06;4940083;28;20073;-86
2022/08/17 12:03:32;;;;;;;17.42;6.78;;;;;;;37.47;27.83;100819.75;4921999;28;21032;-84
2022/08/17 12:06:29;;;;;;;10.27;6.20;;;;;;;37.48;28.38;100806.69;4938777;28;20382;-83
2022/08/17 12:09:09;;;;;;;15.65;7.07;;;;;;;37.74;28.42;100823.56;4922710;28;20447;-84
2022/08/17 12:11:50;;;;;;;16.63;7.18;;;;;;;37.37;27.82;100770.97;4937087;28;20667;-84
2022/08/17 12:14:39;;;;;;;16.83;7.15;;;;;;;37.91;27.98;100820.91;4938091;28;20582;-84
2022/08/17 12:17:29;;;;;;;13.70;6.03;;;;;;;38.06;27.85;100828.06;4924972;28;20656;-84
2022/08/17 12:20:23;;;;;;;17.05;6.90;;;;;;;37.53;27.68;100729.06;4939678;28;20054;-85
2022/08/17 12:23:02;;;;;;;16.48;6.80;;;;;;;38.26;27.04;100812.88;4938469;28;20490;-83
2022/08/17 12:25:55;;;;;;;22.33;6.60;;;;;;;38.50;27.06;100795.88;4939497;28;20661;-84
2022/08/17 12:28:29;;;;;;;17.30;7.85;;;;;;;38.27;27.11;100745.19;4886326;28;20106;-84
2022/08/17 12:31:05;;;;;;;15.80;6.50;;;;;;;39.05;26.90;100834.25;4937291;28;20096;-84
2022/08/17 12:33:35;;;;;;;19.65;6.65;;;;;;;39.15;26.86;100799.81;4918281;29;20047;-84